index

Nationale moyenne distance
Ronquières 27.4.2008
Altaïr CO

Last updated: 24.04.2008 11:24:24HELGA Orienteering Software © Michael Hock

DESP DJUN DOPEN DPUP DVETA DVETB DVETC DVETD HESP HJUN HOPEN HPUP HVETA HVETB HVETC HVETD
Total Splitsbrowser

NCL non classé   

D. Espoirs   length 2600m  climb 95m (2)

[H:]M:Smin/km
1.Charlotte THEYSD-14Omega29:5011'28"
2.Barbora PIJAKOVAD-14ASUB39:5215'20"+10:02
Top

D. Junioren - Juniores   length 4100m  climb 125m (5)

[H:]M:Smin/km
1.Elisabeth HENKESD-18Omega31:347'42"
2.Katharina HENKESD-18O.L.G. St. Vith ARDOC34:588'32"+3:24
3.Margot VANDEMEULEBROEKD-18ASUB37:289'08"+5:54
4.Magali VAN GASSED-18Pégase1:00:0614'40"+28:32
5.Rasa GENTIVILAITED-20ASUB1:05:2515'57"+33:51
Top

D. Open   length 5200m  climb 165m (24)

[H:]M:Smin/km
1.Greet OEYEND21hamok37:027'07"
2.Stéphanie BLOCKXD21CO Liège43:028'17"+6:00
3.Severine VANDERMEULEND21CO Liège43:108'18"+6:08
4.Véronique BASTIND21O.L.G. St. Vith ARDOC43:298'22"+6:27
5.Vinciane MULPASD21ASUB43:448'25"+6:42
6.Anne-Françoise HENNEND35O.L.G. St. Vith ARDOC45:008'39"+7:58
7.Katrien BRUYNINCKXD21K.O.L.48:119'16"+11:09
8.Florence DERAMD21ASUB49:009'25"+11:58
9.Muriel VANDERMEULEND21CO Liège49:309'31"+12:28
10.Kristel MERTENSD35TROL52:5710'11"+15:55
11.Valérie CLISSEND21CO Liège53:0010'12"+15:58
12.Marie-Agnès PIQUERAYD35Hermathenae56:5810'57"+19:56
13.Kim STEEGEND21K.O.L.57:1411'00"+20:12
14.Leslie CRETTELSD21Hermathenae58:0611'10"+21:04
15.Rachel ATTARDD35ASUB58:3211'15"+21:30
16.Sylvia HENNESD35O.L.G. St. Vith ARDOC58:5911'21"+21:57
17.Marie DESTREED21Hainaut O.C.59:5011'30"+22:48
18.Florence BASTIND35CO Liège1:01:5211'54"+24:50
19.Frédérique DELHASSED45Balise 101:05:2112'34"+28:19
20.Sietske PEETERSD21TROL1:05:3312'36"+28:31
21.Sindy SAGGIORATOD21Balise 101:09:4313'24"+32:41
NCLAline HERMANSD21CO Liège
NCLCindy VERBRUGGEND21Pégase
NCLMiek FABRÉD-20Omega
Top

D. Pupilles   length 2300m  climb 65m (5)

[H:]M:Smin/km
1.Elke VERDEYEND-12Omega17:107'28"
2.Magalie GILLETD-10Omega29:0912'40"+11:59
3.Eske AERDEND-10K.O.L.44:0619'10"+26:56
4.Claudia ROOMAND-12TROL45:1419'40"+28:04
5.Marine SILLIEND-10Pégase49:0221'19"+31:52
Top

D. Veteranen A - Vétérans A   length 4800m  climb 130m (25)

[H:]M:Smin/km
1.Françoise RENARDD45CO Liège45:289'28"
2.Els PUTD45Omega46:049'36"+0:36
3.Kerstin BUCHACKERD40CO Liège46:259'40"+0:57
4.Marijs VANDEWEYERD40hamok46:469'45"+1:18
5.Martine TAFFEIREND45hamok52:3110'56"+7:03
6.Anna DUBOIS COLOMBID50Hermathenae55:2611'33"+9:58
7.Kathleen REYNDERSD40K.O.L.55:5911'40"+10:31
8.An VERBERNED40hamok58:1712'09"+12:49
9.Veerle MOERMANSD40Omega1:00:1212'33"+14:44
10.Dominique LUYTSD45ASUB1:02:0412'56"+16:36
11.Carine LAMBEAUD45ASUB1:03:4713'17"+18:19
12.Hilde VERCAEREND45K.O.L.1:04:5313'31"+19:25
13.Jenny BUELENSD45ASUB1:04:5913'32"+19:31
14.Karine DIERCKXD40Omega1:05:1113'35"+19:43
15.Pascale MARTIND45Altaïr CO1:05:1413'35"+19:46
16.Hilde KROLSD45hamok1:06:0213'45"+20:34
17.Myriam VANHOREBEEKD40Omega1:07:4914'08"+22:21
18.Greta DE BOCKD40hamok1:08:0314'11"+22:35
19.Greta MOLSD45hamok1:12:1415'03"+26:46
20.Sonia NYSD45Omega1:20:2016'44"+34:52
21.Isabelle SILLIEND40Pégase1:24:2617'35"+38:58
22.Betty DE MEYERD40TROL1:29:2718'38"+43:59
23.Francine SERRED40Les Raptors2:05:5126'13"+1:20:23
NCLCatherine DE BIOURGED40Pégase
NCLMaurice REVERSEAUD40ASUB
Top

D. Veteranen B - Vétérans B   length 3600m  climb 115m (21)

[H:]M:Smin/km
1.Hildegard BASTIN-HALMESD55O.L.G. St. Vith ARDOC40:2911'15"
2.Claire MUYLLAERTD50ASUB41:4411'36"+1:15
3.Lieve GEENSD55TROL43:0311'57"+2:34
4.Odette MORETD55K.O.L.43:1212'00"+2:43
5.Monica ROELINGD55TROL44:3912'24"+4:10
6.Liset HENDRICKXD50Omega44:5812'29"+4:29
7.Paulette BLOMMEND55Omega45:1212'33"+4:43
8.Lily-Anne COLED50TROL45:3012'38"+5:01
9.Jeanne IGNOULD55Omega45:3312'39"+5:04
10.Antoine CARNOTD55ASUB45:5712'46"+5:28
11.Eva PIJAKOVAD50ASUB50:0713'55"+9:38
12.Martine MINETD50O.L.V. Eifel50:1913'59"+9:50
13.Simonne SILVID50K.O.L.51:0614'12"+10:37
14.Bernadette VANDERMEULEND50CO Liège51:5314'25"+11:24
15.Colette DECEUNINCKD55ASUB52:0714'29"+11:38
16.Irma COLLIENNED50O.L.V. Eifel52:5214'41"+12:23
17.Anita BAERTSD50Borasca53:3714'54"+13:08
18.Jacqueline MOREAU-SCUVEED55CO Liège57:2515'57"+16:56
19.Nicole ARPIGNY - VAN GASSED50Pégase57:3616'00"+17:07
20.Christiane TOEBINTED55Balise 101:14:3420'43"+34:05
NCLViera FIALOVAD55N.S.V. Amel
Top

D. Veteranen C - Vétérans C   length 2600m  climb 95m (8)

[H:]M:Smin/km
1.Gilberte MARIEND60K.O.L.32:3012'30"
2.Thérèse GENTEND65N.S.V. Amel42:2316'18"+9:53
3.Manon RENNOTTE-CHAUVEHEIDD65Hermathenae42:4516'27"+10:15
4.Danielle NOLENSD60hamok43:1316'37"+10:43
5.Maria DELARBRED60hamok48:0318'29"+15:33
6.Roza GOOSD65hamok49:3719'05"+17:07
7.Hélène GIELEND65hamok1:22:1831'39"+49:48
NCLElizabeth VANDEN ABEELED65Omega
Top

D. Veteranen D - Vétérans D   length 2600m  climb 95m (3)

[H:]M:Smin/km
1.Josette LUXEND70Balise 1041:3616'00"
2.Magda GOFFIND70K.O.L.48:0018'28"+6:24
3.Rachel MATTHYSD75ASUB56:4021'48"+15:04
Top

H. Espoirs   length 3600m  climb 115m (16)

[H:]M:Smin/km
1.Bruno PARMENTIERH-16ASUB23:416'35"
2.Thomas BREDOH-16O.L.V. Eifel24:106'43"+0:29
3.Julien GILLETH-16ASUB25:167'01"+1:35
4.Thomas GILLETH-14ASUB29:248'10"+5:43
5.Olivier LUDOVICYH-16CO Liège30:598'36"+7:18
6.Thibaut DERENNEH-14Hermathenae31:578'53"+8:16
7.Dennis HECKH-14N.S.V. Amel32:178'58"+8:36
8.Matthieu LEJOLYH-16O.L.G. St. Vith ARDOC36:0710'02"+12:26
9.Quentin PEETERSH-16Hainaut O.C.38:3210'42"+14:51
10.Julien DACHEH-14Pégase38:4710'46"+15:06
11.Martin VANDERLINDENH-14ASUB50:4614'06"+27:05
12.Thomas BAGUETH-14COMB54:0915'03"+30:28
13.Ben VERVOORTH-14TROL1:00:1116'43"+36:30
14.Pierre LECOCQH-14Hermathenae1:13:1420'21"+49:33
15.Roger MERTENSH-14N.S.V. Amel1:13:5520'32"+50:14
16.Nick VERVOORTH-14TROL1:16:3421'16"+52:53
Top

H. Junioren - Juniors   length 4900m  climb 165m (11)

[H:]M:Smin/km
1.Yannick MICHIELSH-18K.O.L.30:196'11"
2.Jochen VERDEYENH-20Omega30:596'19"+0:40
3.Benjamin HOFMANSH-18ASUB35:017'09"+4:42
4.Corentin TONNEAUH-20O.L.V. Eifel35:297'14"+5:10
5.Nicolas LUDOVICYH-18CO Liège37:297'39"+7:10
6.Adrien MOUREAUH-20Pégase37:367'40"+7:17
7.Félix VANDEMEULEBROEKH-20ASUB44:509'09"+14:31
8.Frederik MEYNENH-18hamok45:469'20"+15:27
9.Quentin MINEURH-18Balise 1045:519'21"+15:32
10.Benjamin MINEURH-18Balise 101:08:1413'56"+37:55
NCLTom NIJSTENH-18Borasca
Top

H. Open   length 6200m  climb 185m (57)

[H:]M:Smin/km
1.Fabien PASQUASYH21Hainaut O.C.31:515'08"
2.Nicolas SILLIENH21Pégase36:525'57"+5:01
3.Etienne VAN GASSEH21Les Raptors37:366'04"+5:45
4.Anssi MUIKKUH21TROL38:116'10"+6:20
5.Desmond FRANSSENH21TROL38:246'12"+6:33
6.Jan OEYENH21Borasca39:306'22"+7:39
7.Gunther DEFERMEH35hamok39:346'23"+7:43
8.Michel BASTINH21O.L.G. St. Vith ARDOC39:546'26"+8:03
9.Ken PEETERSH21TROL40:226'31"+8:31
10.Christophe BERNARDH21ASUB40:406'34"+8:49
11.Alain MAZYH21CO Liège40:546'36"+9:03
12.Jeroen VAN DER KLEIJH21hamok41:376'43"+9:46
13.Dries HEUNINCKXH21K.O.L.41:496'45"+9:58
14.Jean-Baptiste COLOMBH21ASUB42:076'48"+10:16
15.Winston FRANSSENH21TROL42:256'50"+10:34
16.Dries VAN DER KLEIJH21hamok43:086'57"+11:17
17.Sam DEFERMH21Borasca43:166'59"+11:25
18.Tom MARIENH21K.O.L.43:227'00"+11:31
19.Yves BRIERSH21K.O.L.43:417'03"+11:50
20.Roel VAN DE MOORTELH35Omega44:117'08"+12:20
21.Guido LENGESH21N.S.V. Amel44:197'09"+12:28
Olivier CHATTLAINH35O.L.G. St. Vith ARDOC44:197'09"+12:28
23.Donald VAN BOVENH35TROL44:297'10"+12:38
24.Patrick MOSSOUXH45Pégase45:477'23"+13:56
25.Eric MATTARTH35Hermathenae46:317'30"+14:40
26.Patrice LOMBETH35Pégase47:297'40"+15:38
27.Philippe CREFCOEURH40Les Raptors47:437'42"+15:52
28.Arnis SNOREH21Altaïr CO48:137'47"+16:22
29.François CLAPUYTH21ASUB48:187'47"+16:27
30.Stefaan SCHUTJESH21hamok48:247'48"+16:33
31.Jan DELOBELH21Omega49:558'03"+18:04
32.Patrick MAYERESH21Hermathenae50:328'09"+18:41
33.Edgard FORTEMPSH35O.L.G. St. Vith ARDOC50:338'09"+18:42
34.Joost TALLOENH21Omega51:008'14"+19:09
35.Geert VOORHOFH35K.O.L.51:108'15"+19:19
36.Kris VAN GELDERH35Omega51:218'17"+19:30
37.Pierre EYENH35CO Liège52:498'31"+20:58
38.Jef BOECKXH21K.O.L.52:518'31"+21:00
39.Jean-Claude JIMENEZH45hamok53:278'37"+21:36
40.Wim VERVOORTH35TROL55:368'58"+23:45
41.François TONNEAUH21O.L.V. Eifel57:289'16"+25:37
42.Pierre GERARDH21Pégase59:099'32"+27:18
43.Toon PEETERSH21TROL59:389'37"+27:47
44.Quentin GILLETH21CO Liège1:02:2210'04"+30:31
45.François LAMBERTH21Altaïr CO1:02:5210'08"+31:01
46.Christophe AMERIJCKXH35ASUB1:04:5310'28"+33:02
47.Filiep DEBAEREH21K.O.L.1:09:4011'14"+37:49
48.Bert MERTENSH21Borasca1:10:0311'18"+38:12
49.Frank AERDENH35K.O.L.1:15:0312'06"+43:12
50.Erik MOSTMANSH21TROL1:26:5914'02"+55:08
NCLDavid LEMAIREH21ASUB
NCLFrank BUYTAERTH35TROL
NCLRonny TIMMERSH21hamok
NCLRudy ROOMANH35TROL
NCLThomas VAN DER KLEIJH21hamok
NCLTino NIJSTH35Omega
NCLWannes HENDRICKXH21K.O.L.
Top

H. Pupilles   length 2300m  climb 65m (7)

[H:]M:Smin/km
1.Rob CEULEMANSH-12Omega19:538'39"
2.Jérémy BREDOH-12O.L.V. Eifel22:099'38"+2:16
3.Sverre BUYTAERTH-10TROL30:1813'10"+10:25
4.Tom DRYGALSKIH-12Hainaut O.C.31:4613'49"+11:53
5.Michaël HANNANH-12K.O.L.36:0015'39"+16:07
6.Cédric AMERIJCKXH-10ASUB37:2816'17"+17:35
7.Liévin CREFCOEURH-10Les Raptors41:0017'50"+21:07
Top

H. Veteranen A - Vétérans A   length 5800m  climb 145m (48)

[H:]M:Smin/km
1.Bart MELLEBEEKH40hamok37:206'26"
2.Frans LAENENH45TROL38:046'34"+0:44
Guy TIREZH40K.O.L.38:046'34"+0:44
4.Guido VERDEYENH45Omega38:416'40"+1:21
5.Michael HENNESH40O.L.G. St. Vith ARDOC40:246'58"+3:04
6.Bart VAN DE MOORTELH45Omega41:107'06"+3:50
7.Christian GILLETH40ASUB41:537'13"+4:33
8.François JACOBSH45Omega42:277'19"+5:07
9.Christian STOFFELSH45Balise 1042:287'19"+5:08
Guido TIMMERSH45hamok42:287'19"+5:08
11.Laurent THUILLIERH40ASUB42:467'22"+5:26
12.Luc MELISH45hamok42:557'24"+5:35
13.Frank VANSPAUWENH40Hermathenae43:347'31"+6:14
14.Serge BAERTH40K.O.L.44:147'38"+6:54
15.Joël DRYGALSKIH40Hainaut O.C.45:287'50"+8:08
Thierry CHAXELH40ASUB45:287'50"+8:08
17.Jean-Noël DEBEHOGNEH45ASUB46:438'03"+9:23
18.Philippe TAELEMANSH45ASUB46:558'05"+9:35
19.Alain WATHELETH45CO Liège47:598'16"+10:39
20.Dirk JACOBSH40K.O.L.48:118'18"+10:51
21.Dominique PEETERSH45Borasca48:598'27"+11:39
22.Rudi AERTSH40Omega49:578'37"+12:37
23.Luc CLOOSTERMANSH45hamok50:278'42"+13:07
24.Adrien DE VRIENDTH45K.O.L.50:328'43"+13:12
25.Luc MOUREAUH45Pégase51:298'53"+14:09
26.Rui MOURAH45Altaïr CO52:439'05"+15:23
27.Vladimir GELDOFH40hamok52:589'08"+15:38
28.Patrick VANHAERENH40K.O.L.53:469'16"+16:26
29.Jean IGNOULH45K.O.L.54:369'25"+17:16
30.Jean-Luc MULLERH45Balise 1055:099'31"+17:49
31.Jan THEYSH45Omega56:589'49"+19:38
Rudi CORSTJENSH40hamok56:589'49"+19:38
33.Serge HERBIGNIAUXH45Balise 1059:5610'20"+22:36
34.Eddy JANSENH40K.O.L.1:00:5810'31"+23:38
35.Paul CORTHOUTSH45K.O.L.1:01:1810'34"+23:58
36.Jan LEMMENSH45Omega1:01:3110'36"+24:11
Jean-Luc DUBOISH50Hermathenae1:01:3110'36"+24:11
38.Marc VANDEMEULEBROEKH45ASUB1:05:1011'14"+27:50
39.Rudi LIMBORGSH45Omega1:06:1011'24"+28:50
40.Emmanuel VAN DER MARENH45B.A.B.A.1:07:0911'35"+29:49
41.Alain CHAINEUXH40CO Liège1:08:1811'47"+30:58
42.Dirk CEULEMANSH45Omega1:09:3011'59"+32:10
43.Marc DE BAEDTSH45TROL1:09:5212'03"+32:32
44.Koen MEYNENH40hamok1:10:3012'09"+33:10
45.Valerio CASTIGLIONEH40O.L.G. St. Vith ARDOC1:11:0412'15"+33:44
46.Dirk FABRÉH45Omega1:11:2712'19"+34:07
47.Tom CUYVERSH40Omega1:35:1816'26"+57:58
NCLHenrik LISBYH40hamok
Top

H. Veteranen B - Vétérans B   length 4900m  climb 130m (48)

[H:]M:Smin/km
1.Roger HENDRICKXH55K.O.L.31:486'29"
2.Pierre MARCHALH50CO Liège35:167'12"+3:28
3.Anne HEIKOOPH50K.O.L.35:297'14"+3:41
4.Jos GILOTH50K.O.L.37:597'45"+6:11
5.Jean-Claude PASQUASYH55Hainaut O.C.39:298'03"+7:41
6.Willy HOEKXH50hamok39:478'07"+7:59
7.Hubert BASTINH55O.L.G. St. Vith ARDOC41:078'23"+9:19
8.Alfred RAESH55Balise 1041:258'27"+9:37
9.Jacques SILVESTREH55CO Liège41:388'30"+9:50
10.Etienne DE WITH50K.O.L.42:218'39"+10:33
11.Alfred SIMKENSH55K.O.L.42:298'40"+10:41
12.Luc HEUNINCKXH55K.O.L.43:598'59"+12:11
13.Rogier VANAKENH55Omega44:599'11"+13:11
14.Jacques HOFMANSH50ASUB45:379'19"+13:49
15.Etienne DE CANNEH50Omega45:459'20"+13:57
16.René STEENSSENSH55Balise 1045:519'21"+14:03
17.Patrick VAN GASSEH50Pégase46:139'26"+14:25
18.Giel PARDOELH55TROL46:299'29"+14:41
19.Yves MATTARTH55Pégase47:169'39"+15:28
20.Roger BOCKXH50K.O.L.47:179'39"+15:29
Rudy CANTREH55K.O.L.47:179'39"+15:29
22.Pierre GILLAINH50Pégase47:589'47"+16:10
23.Bruno VANDERMEULENH55CO Liège48:489'58"+17:00
24.Francis KRIERH55ASUB50:0310'13"+18:15
25.Frans WENSH55TROL50:0810'14"+18:20
26.Jean-Pierre KELLENSH55K.O.L.50:3910'20"+18:51
27.Dominique SCHUTJESH55hamok51:3410'31"+19:46
28.Leopold OOMSH55TROL51:3710'32"+19:49
29.Walter DE NEYERH55ASUB51:4010'33"+19:52
30.Bernard DUBOISH50Hainaut O.C.51:5410'36"+20:06
31.Ivo TIMMERMANSH55K.O.L.52:0910'39"+20:21
32.Philippe PARIZELH55Balise 1052:5610'48"+21:08
33.Eddie VANDEWEYERH50K.O.L.53:2710'54"+21:39
34.Philippe BONTEH50ASUB55:2311'18"+23:35
35.Georges DICKERH55ASUB56:3611'33"+24:48
36.Philippe HECQH50Hainaut O.C.56:5711'37"+25:09
37.Marc LEERSH50TROL57:4011'46"+25:52
38.Johan CLAESH50Borasca1:00:0412'16"+28:16
39.Jean BREDOH55O.L.V. Eifel1:00:0612'16"+28:18
40.Eddie DESMEDTH55TROL1:06:1213'31"+34:24
41.Jacques BASTIENH55Hainaut O.C.1:07:4313'49"+35:55
42.Jacques MINEURH50Balise 101:15:4715'28"+43:59
43.Robert SCUVEEH55CO Liège1:18:5616'07"+47:08
44.Jean LUYTENH50Omega1:19:4016'16"+47:52
45.Paul BOLSENSH50TROL1:22:2516'49"+50:37
46.Eric MATHIEUH50Pégase1:22:2616'49"+50:38
NCLChris ADDIERSH50Omega
NCLMarcel SCHWALLH55O.L.V. Eifel
Top

H. Veteranen C - Vétérans C   length 3600m  climb 115m (22)

[H:]M:Smin/km
1.Freddy SILLIENH60Pégase23:276'31"
2.Pierre PARMENTIERH60ASUB30:408'31"+7:13
3.Jos THIJSH60hamok36:1410'04"+12:47
4.Heinrich EICHERH60O.L.G. St. Vith ARDOC36:2310'06"+12:56
5.Georges RENNOTTEH65Hermathenae36:3110'09"+13:04
6.Chris NEYENSH65K.O.L.38:1710'38"+14:50
7.Mike IN T GROENH60TROL38:3610'43"+15:09
8.Georges TIMMERMANSH60K.O.L.38:4610'46"+15:19
9.Serge DERYH60Balise 1039:1110'53"+15:44
10.Mark VAN BRUGGENH60TROL39:4911'04"+16:22
11.Bert GEUDENSH60K.O.L.41:1311'27"+17:46
12.Ruud SCHONEWILLEH60Borasca42:3211'49"+19:05
13.Albin GENTENH65N.S.V. Amel42:4111'51"+19:14
14.Jos HOUBENH60K.O.L.43:4912'10"+20:22
15.Phil MELLEBEEKH65hamok43:5912'13"+20:32
16.Willy KUPPERH65O.L.G. St. Vith ARDOC45:0112'30"+21:34
17.Alfons BOSCHH65TROL45:3712'40"+22:10
18.Jos BYLEMANSH60K.O.L.48:3713'30"+25:10
19.Fred WELLENSH60hamok49:3613'47"+26:09
20.Jean-Pierre VAN DER CRUYSH65ASUB51:1914'15"+27:52
21.William MITCHELLH60Omega57:1515'54"+33:48
22.Jean BAYIH65O.L.V. Eifel1:11:3619'53"+48:09
Top

H. Veteranen D - Vétérans D   length 2600m  climb 95m (12)

[H:]M:Smin/km
1.Engelbert OFFERMANH70O.L.V. Eifel28:2110'54"
2.Bonaventur CLOOSTERMANSH70hamok31:3812'10"+3:17
3.André LUXENH70Balise 1034:0413'06"+5:43
4.Lucien TONNEAUH70O.L.V. Eifel36:2814'02"+8:07
5.Joseph FAGARDH75Hermathenae37:1714'20"+8:56
6.Denis REYNDERSH75K.O.L.41:2715'57"+13:06
7.Karl MOLSH75Omega45:1917'26"+16:58
8.Joseph PIQUERAYH75Hermathenae47:4618'22"+19:25
9.Klemens HERBRANDH75O.L.G. St. Vith ARDOC51:3819'52"+23:17
10.Jean MATTHYSH80ASUB52:5320'20"+24:32
NCLGeorges CEUNENH70K.O.L.
NCLJacques GRAULSH70Omega
Top

Total

K.O.L.45
ASUB41
Omega38
hamok33
TROL31
CO Liège21
Pégase18
Balise 1015
O.L.G. St. Vith ARDOC15
Hermathenae13
O.L.V. Eifel11
Hainaut O.C.9
Borasca8
N.S.V. Amel6
Altaïr CO4
Les Raptors4
B.A.B.A.1
COMB1
Total: 314